Time;durP1;ratioP1;P1;durP2;ratioP2;P2;SDS_P1;SDS_P2;PMS_P1;PMS_P2;Temp;Humidity;BMP_temperature;BMP_pressure;BME280_temperature;BME280_humidity;BME280_pressure;Samples;Min_cycle;Max_cycle;Signal;HPM_P1;HPM_P2
2023/06/22 00:01:54;;;;;;;27.15;16.90;;;;;;;18.41;100.00;102060.72;5042998;28;20037;-62
2023/06/22 00:04:19;;;;;;;24.63;16.17;;;;;;;18.42;100.00;102057.09;5044835;28;20374;-64
2023/06/22 00:06:44;;;;;;;24.85;16.05;;;;;;;18.39;100.00;102057.25;5021109;28;20028;-63
2023/06/22 00:09:10;;;;;;;26.75;16.27;;;;;;;18.35;100.00;102058.34;5036136;28;20745;-63
2023/06/22 00:11:36;;;;;;;28.65;16.73;;;;;;;18.35;100.00;102057.47;5043379;28;20051;-62
2023/06/22 00:14:02;;;;;;;26.10;16.90;;;;;;;18.33;100.00;102049.53;5047584;28;20058;-63
2023/06/22 00:16:27;;;;;;;24.38;16.40;;;;;;;18.32;100.00;102058.50;5049413;28;20484;-62
2023/06/22 00:18:53;;;;;;;26.00;17.45;;;;;;;18.32;100.00;102053.16;5049406;28;20021;-62
2023/06/22 00:21:20;;;;;;;29.35;20.40;;;;;;;18.22;100.00;102052.75;5049664;28;20103;-63
2023/06/22 00:23:47;;;;;;;27.50;18.27;;;;;;;18.21;100.00;102063.47;5033131;28;20437;-62
2023/06/22 00:26:12;;;;;;;31.35;20.17;;;;;;;18.17;100.00;102060.94;5050466;28;20393;-62
2023/06/22 00:28:38;;;;;;;29.92;19.45;;;;;;;18.16;100.00;102059.22;5050666;28;20029;-62
2023/06/22 00:31:03;;;;;;;36.75;20.80;;;;;;;18.15;100.00;102051.31;5050368;28;20025;-62
2023/06/22 00:33:28;;;;;;;31.67;21.15;;;;;;;18.11;100.00;102039.91;5050703;28;20080;-62
2023/06/22 00:35:54;;;;;;;33.78;20.77;;;;;;;18.05;100.00;102045.47;5049862;28;20028;-62
2023/06/22 00:38:19;;;;;;;31.38;20.65;;;;;;;18.01;100.00;102039.44;5050704;28;20525;-62
2023/06/22 00:40:45;;;;;;;35.92;21.15;;;;;;;18.02;100.00;102042.94;5050374;28;20032;-64
2023/06/22 00:43:10;;;;;;;32.60;20.95;;;;;;;18.00;100.00;102042.19;5049932;28;20082;-64
2023/06/22 00:45:36;;;;;;;36.85;23.17;;;;;;;17.97;100.00;102036.97;5050471;28;20055;-61
2023/06/22 00:48:02;;;;;;;35.78;22.70;;;;;;;17.98;100.00;102025.38;5050172;28;20061;-63
2023/06/22 00:50:33;;;;;;;32.53;20.35;;;;;;;17.97;100.00;102031.66;5050358;28;20029;-63
2023/06/22 00:53:00;;;;;;;34.50;21.67;;;;;;;17.94;100.00;102027.31;5047651;28;20078;-62
2023/06/22 00:55:28;;;;;;;31.95;19.40;;;;;;;17.97;100.00;102023.66;5049368;28;20365;-64
2023/06/22 00:57:55;;;;;;;32.13;20.58;;;;;;;17.97;100.00;102031.66;5049687;28;20033;-63
2023/06/22 01:00:24;;;;;;;30.75;19.75;;;;;;;17.99;100.00;102024.44;5049092;28;20432;-64
2023/06/22 01:02:51;;;;;;;32.80;20.90;;;;;;;18.00;100.00;102020.84;5049810;28;20013;-62
2023/06/22 01:05:18;;;;;;;28.90;19.52;;;;;;;18.04;100.00;102025.09;5031841;28;20033;-62
2023/06/22 01:08:09;;;;;;;31.55;20.75;;;;;;;18.07;100.00;102032.94;5049422;28;20025;-63
2023/06/22 01:10:48;;;;;;;26.70;18.73;;;;;;;18.12;100.00;102019.44;5050037;28;20033;-62
2023/06/22 01:13:49;;;;;;;34.38;19.55;;;;;;;18.12;100.00;102030.94;5032219;28;20021;-62
2023/06/22 01:16:20;;;;;;;36.28;21.60;;;;;;;18.16;100.00;102029.00;5005194;28;20046;-64
2023/06/22 01:18:47;;;;;;;33.92;21.50;;;;;;;18.17;100.00;102031.63;5010944;28;20457;-63
2023/06/22 01:21:17;;;;;;;38.28;20.90;;;;;;;18.16;100.00;102027.22;5009555;28;20036;-64
2023/06/22 01:23:52;;;;;;;39.67;24.10;;;;;;;18.15;100.00;102020.13;5047813;28;20025;-62
2023/06/22 01:26:28;;;;;;;41.22;24.92;;;;;;;18.11;100.00;102013.22;5030970;28;20100;-63
2023/06/22 01:28:55;;;;;;;40.40;25.98;;;;;;;18.12;100.00;102014.94;5030666;28;20071;-63
2023/06/22 01:31:24;;;;;;;46.88;27.98;;;;;;;18.12;100.00;102012.28;5029318;28;20021;-64
2023/06/22 01:33:53;;;;;;;39.15;26.55;;;;;;;18.17;100.00;102012.06;5046623;28;20198;-63
2023/06/22 01:36:19;;;;;;;;;;;;;;;18.16;100.00;102013.00;5024757;28;20382;-61
2023/06/22 01:38:46;;;;;;;43.08;27.45;;;;;;;18.15;100.00;102006.81;5045459;28;19927;-63
2023/06/22 01:41:12;;;;;;;43.40;27.27;;;;;;;18.11;100.00;102010.56;5028439;28;20559;-62
2023/06/22 01:43:38;;;;;;;41.40;26.65;;;;;;;18.19;100.00;102016.38;5046587;28;20029;-63
2023/06/22 01:46:04;;;;;;;41.47;25.08;;;;;;;18.15;100.00;102014.81;5028677;28;20044;-64
2023/06/22 01:48:30;;;;;;;39.47;25.55;;;;;;;18.25;100.00;102019.72;5047268;28;20082;-62
2023/06/22 01:50:55;;;;;;;38.42;24.60;;;;;;;18.21;100.00;102016.31;5029180;28;20044;-62
2023/06/22 01:53:24;;;;;;;40.13;24.70;;;;;;;18.18;100.00;102012.00;5030456;28;20029;-64
2023/06/22 01:55:50;;;;;;;37.95;23.13;;;;;;;18.17;100.00;102014.72;5049093;28;20025;-62
2023/06/22 01:58:16;;;;;;;45.50;27.55;;;;;;;18.12;100.00;102012.28;5048985;28;20027;-65
2023/06/22 02:00:47;;;;;;;43.42;27.10;;;;;;;18.12;100.00;102012.28;5048668;28;20053;-63
2023/06/22 02:03:15;;;;;;;42.05;27.40;;;;;;;18.11;100.00;102007.00;5048531;28;20040;-63
2023/06/22 02:05:49;;;;;;;39.03;25.83;;;;;;;18.10;100.00;102011.50;5048095;28;20067;-63
2023/06/22 02:08:21;;;;;;;41.35;25.67;;;;;;;18.05;100.00;102005.47;5030927;28;20029;-63
2023/06/22 02:10:47;;;;;;;39.97;25.23;;;;;;;18.02;100.00;102006.50;5048777;28;20442;-61
2023/06/22 02:13:13;;;;;;;39.05;25.88;;;;;;;18.03;100.00;102010.88;5048301;28;20056;-63
2023/06/22 02:15:38;;;;;;;43.15;28.10;;;;;;;18.00;100.00;102007.50;5030915;28;20021;-62
2023/06/22 02:18:03;;;;;;;46.42;27.75;;;;;;;17.98;100.00;102004.91;5030712;28;20032;-62
2023/06/22 02:20:29;;;;;;;41.10;27.52;;;;;;;18.00;100.00;102005.69;5048739;28;20420;-63
2023/06/22 02:22:54;;;;;;;41.05;27.75;;;;;;;18.03;100.00;102002.03;5048270;28;20037;-63
2023/06/22 02:25:21;;;;;;;46.22;28.05;;;;;;;18.03;100.00;102004.72;5048961;28;20025;-64
2023/06/22 02:27:46;;;;;;;43.17;27.80;;;;;;;18.01;100.00;102003.91;5048899;28;20071;-63
2023/06/22 02:30:12;;;;;;;43.83;27.20;;;;;;;17.98;100.00;101996.91;5046899;28;20064;-62
2023/06/22 02:32:37;;;;;;;41.67;27.13;;;;;;;17.94;100.00;101998.84;5048491;28;20049;-63
2023/06/22 02:35:06;;;;;;;44.17;28.15;;;;;;;17.91;100.00;101995.47;5048418;28;20508;-63
2023/06/22 02:37:32;;;;;;;48.15;28.40;;;;;;;17.90;100.00;101997.28;5047684;28;20029;-63
2023/06/22 02:39:57;;;;;;;49.92;32.50;;;;;;;17.86;100.00;101986.81;5047479;28;20035;-63
2023/06/22 02:42:22;;;;;;;49.50;32.58;;;;;;;17.83;100.00;101998.50;5047903;28;20495;-63
2023/06/22 02:44:48;;;;;;;52.75;31.35;;;;;;;17.84;100.00;101999.34;5030344;28;20025;-63
2023/06/22 02:47:13;;;;;;;52.30;31.88;;;;;;;17.83;100.00;101997.63;5047587;28;20033;-63
2023/06/22 02:49:39;;;;;;;44.33;29.50;;;;;;;17.84;100.00;102002.00;5030167;28;20028;-63
2023/06/22 02:52:04;;;;;;;48.90;30.58;;;;;;;17.86;100.00;102002.81;5047520;28;20033;-63
2023/06/22 02:54:30;;;;;;;54.20;32.47;;;;;;;17.77;100.00;101988.13;5047723;28;20623;-63
2023/06/22 02:56:55;;;;;;;52.15;31.25;;;;;;;17.78;100.00;102001.38;5047624;28;20029;-63
2023/06/22 02:59:23;;;;;;;47.35;30.52;;;;;;;17.76;100.00;101997.06;5047549;28;20025;-64
2023/06/22 03:01:49;;;;;;;55.75;31.02;;;;;;;17.75;100.00;102003.28;5048002;28;20498;-63
2023/06/22 03:04:15;;;;;;;60.13;34.67;;;;;;;17.75;100.00;102004.16;5047540;28;20024;-63
2023/06/22 03:06:41;;;;;;;52.55;33.08;;;;;;;17.76;100.00;102002.38;5046776;28;20045;-62
2023/06/22 03:09:07;;;;;;;56.40;32.85;;;;;;;17.79;100.00;102007.56;5047654;28;20095;-62
2023/06/22 03:11:33;;;;;;;59.22;34.10;;;;;;;17.75;100.00;102012.16;5047655;28;20363;-62
2023/06/22 03:14:02;;;;;;;58.80;33.88;;;;;;;17.76;100.00;102010.38;5047601;28;20068;-62
2023/06/22 03:16:28;;;;;;;53.33;32.63;;;;;;;17.74;100.00;102013.13;5048076;28;20037;-62
2023/06/22 03:18:53;;;;;;;56.20;33.33;;;;;;;17.71;100.00;101994.59;5058003;28;20012;-62
2023/06/22 03:21:22;;;;;;;62.05;34.47;;;;;;;17.72;100.00;101984.78;5067416;28;20035;-62
2023/06/22 03:23:47;;;;;;;;;;;;;;;17.68;100.00;101987.63;5068286;28;20676;-61
2023/06/22 03:26:13;;;;;;;62.53;36.15;;;;;;;17.67;100.00;101982.34;5067204;28;19913;-64
2023/06/22 03:28:38;;;;;;;60.60;34.05;;;;;;;17.65;100.00;101979.75;5067307;28;20070;-62
2023/06/22 03:31:06;;;;;;;54.50;32.10;;;;;;;17.65;100.00;101982.41;5066940;28;20036;-63
2023/06/22 03:33:31;;;;;;;59.35;35.75;;;;;;;17.63;100.00;101981.63;5067313;28;20097;-62
2023/06/22 03:35:57;;;;;;;60.00;33.25;;;;;;;17.62;100.00;101985.22;5065944;28;20032;-63
2023/06/22 03:38:22;;;;;;;64.20;36.67;;;;;;;17.56;100.00;101977.50;5067127;28;20052;-61
2023/06/22 03:40:48;;;;;;;59.10;34.97;;;;;;;17.59;100.00;101976.50;5067483;28;20063;-62
2023/06/22 03:43:13;;;;;;;59.67;34.17;;;;;;;17.62;100.00;101968.34;5070751;28;20350;-63
2023/06/22 03:45:40;;;;;;;63.67;36.17;;;;;;;17.59;100.00;101966.72;5071013;28;20020;-62
2023/06/22 03:48:05;;;;;;;66.32;37.55;;;;;;;17.59;100.00;101972.03;5070736;28;20048;-62
2023/06/22 03:50:31;;;;;;;66.65;37.97;;;;;;;17.60;100.00;101980.88;5052052;28;20546;-64
2023/06/22 03:52:56;;;;;;;66.53;38.65;;;;;;;17.62;100.00;101968.34;5070849;28;20054;-61
2023/06/22 03:55:22;;;;;;;71.40;39.63;;;;;;;17.66;100.00;101965.50;5070995;28;20492;-62
2023/06/22 03:57:47;;;;;;;65.45;38.45;;;;;;;17.73;100.00;101959.88;5052104;28;20032;-64
2023/06/22 04:00:13;;;;;;;66.63;38.92;;;;;;;17.77;100.00;101966.78;5050459;28;20100;-63
2023/06/22 04:02:39;;;;;;;63.00;37.70;;;;;;;17.81;100.00;101971.03;5032791;28;20048;-62
2023/06/22 04:05:04;;;;;;;66.38;38.03;;;;;;;17.79;100.00;101964.94;5050605;28;20056;-64
2023/06/22 04:07:30;;;;;;;74.10;39.63;;;;;;;17.80;100.00;101961.31;5050129;28;20035;-62
2023/06/22 04:09:55;;;;;;;72.85;41.35;;;;;;;17.73;100.00;101949.22;5050673;28;20146;-62
2023/06/22 04:12:21;;;;;;;68.93;38.67;;;;;;;17.76;100.00;101957.91;5046310;28;20350;-64
2023/06/22 04:14:46;;;;;;;70.22;38.42;;;;;;;17.83;100.00;101955.84;5051116;28;20381;-62
2023/06/22 04:17:14;;;;;;;73.90;39.83;;;;;;;17.88;100.00;101960.97;5050473;28;20107;-63
2023/06/22 04:19:39;;;;;;;68.22;35.97;;;;;;;17.97;100.00;101951.66;5050149;28;20396;-63
2023/06/22 04:22:07;;;;;;;74.40;41.40;;;;;;;17.98;100.00;101964.91;5049491;28;20029;-63
2023/06/22 04:24:32;;;;;;;69.97;38.47;;;;;;;18.02;100.00;101961.16;5050998;28;20087;-63
2023/06/22 04:27:00;;;;;;;66.22;38.00;;;;;;;18.10;100.00;101949.25;5049978;28;20427;-63
2023/06/22 04:29:28;;;;;;;64.82;38.78;;;;;;;18.17;100.00;101964.94;5050063;28;20033;-62
2023/06/22 04:31:55;;;;;;;63.75;36.53;;;;;;;18.24;100.00;101964.63;5049964;28;20083;-63
2023/06/22 04:34:21;;;;;;;67.30;35.65;;;;;;;18.30;100.00;101965.19;5049794;28;20163;-65
2023/06/22 04:36:46;;;;;;;65.05;37.88;;;;;;;18.29;100.00;101951.91;5049981;28;20060;-63
2023/06/22 04:39:12;;;;;;;62.88;35.00;;;;;;;18.24;100.00;101964.63;5050053;28;20049;-64
2023/06/22 04:41:44;;;;;;;63.13;35.22;;;;;;;18.34;100.00;101963.25;5032247;28;20538;-64
2023/06/22 04:44:09;;;;;;;58.85;33.65;;;;;;;18.56;100.00;101968.38;5049552;28;20112;-63
2023/06/22 04:46:38;;;;;;;54.58;33.80;;;;;;;18.65;100.00;101967.06;5050304;28;20108;-63
2023/06/22 04:49:09;;;;;;;57.10;34.08;;;;;;;18.76;100.00;101966.53;5050399;28;20029;-63
2023/06/22 04:51:42;;;;;;;55.55;31.88;;;;;;;18.87;100.00;101973.13;5041126;28;20064;-63
2023/06/22 04:54:08;;;;;;;48.63;31.40;;;;;;;18.96;100.00;101971.78;5031448;28;20025;-65
2023/06/22 04:56:34;;;;;;;47.28;29.63;;;;;;;19.09;100.00;101956.00;5049798;28;20104;-64
2023/06/22 04:58:59;;;;;;;48.92;30.25;;;;;;;19.13;100.00;101968.25;5049282;28;20116;-63
2023/06/22 05:01:25;;;;;;;50.45;29.25;;;;;;;19.32;100.00;101969.00;5049520;28;20523;-63
2023/06/22 05:03:55;;;;;;;41.65;26.75;;;;;;;19.31;100.00;101961.06;5049867;28;20147;-64
2023/06/22 05:06:24;;;;;;;42.40;25.95;;;;;;;19.32;100.00;101978.81;5020363;28;20021;-64
2023/06/22 05:08:49;;;;;;;;;;;;;;;19.40;100.00;101967.72;5013046;28;20025;-63
2023/06/22 05:11:15;;;;;;;38.55;25.63;;;;;;;19.45;100.00;101971.88;5040661;28;19908;-62
2023/06/22 05:13:40;;;;;;;33.38;23.80;;;;;;;19.53;100.00;101965.25;5049102;28;20027;-66
2023/06/22 05:16:05;;;;;;;36.47;24.63;;;;;;;19.59;100.00;101962.25;5049258;28;20036;-63
2023/06/22 05:18:31;;;;;;;35.15;24.27;;;;;;;19.61;100.00;101960.34;5048606;28;20013;-63
2023/06/22 05:20:58;;;;;;;37.75;22.52;;;;;;;19.81;100.00;101963.75;5047332;28;20432;-62
2023/06/22 05:23:23;;;;;;;32.83;22.30;;;;;;;19.88;100.00;101978.50;5048880;28;20028;-63
2023/06/22 05:25:49;;;;;;;31.48;22.08;;;;;;;20.07;100.00;101964.13;5047257;28;20025;-62
2023/06/22 05:28:14;;;;;;;32.08;20.35;;;;;;;20.27;100.00;101975.50;5046168;28;20044;-63
2023/06/22 05:30:39;;;;;;;29.30;19.33;;;;;;;20.37;100.00;101967.78;5031357;28;20033;-63
2023/06/22 05:33:05;;;;;;;28.65;17.83;;;;;;;20.61;100.00;101973.53;5046483;28;20124;-68
2023/06/22 05:35:30;;;;;;;24.58;16.67;;;;;;;20.84;100.00;101971.31;5040209;28;20033;-63
2023/06/22 05:37:56;;;;;;;25.13;18.45;;;;;;;20.79;100.00;101968.03;5040710;28;20036;-64
2023/06/22 05:40:21;;;;;;;24.10;16.42;;;;;;;21.01;100.00;101974.84;5041448;28;20498;-64
2023/06/22 05:42:47;;;;;;;21.45;15.32;;;;;;;21.00;100.00;101960.56;5041911;28;20334;-63
2023/06/22 05:45:12;;;;;;;19.60;14.80;;;;;;;21.04;100.00;101966.63;5037941;28;20037;-64
2023/06/22 05:47:38;;;;;;;23.77;16.40;;;;;;;21.02;100.00;101968.50;5036393;28;20560;-63
2023/06/22 05:50:06;;;;;;;23.70;15.63;;;;;;;21.03;100.00;101979.13;5036764;28;20263;-63
2023/06/22 05:52:32;;;;;;;24.08;16.42;;;;;;;20.97;100.00;101968.78;5042139;28;20052;-62
2023/06/22 05:54:57;;;;;;;25.08;16.20;;;;;;;20.96;100.00;101967.91;5037468;28;20445;-63
2023/06/22 05:57:23;;;;;;;18.67;14.73;;;;;;;21.01;100.00;101969.47;5035803;28;20075;-63
2023/06/22 05:59:48;;;;;;;24.85;17.05;;;;;;;21.04;100.00;101974.66;5043021;28;20378;-63
2023/06/22 06:02:14;;;;;;;22.40;16.05;;;;;;;21.12;100.00;101971.47;5037880;28;20025;-63
2023/06/22 06:04:39;;;;;;;25.20;16.25;;;;;;;21.06;100.00;101970.03;5030351;28;20057;-64
2023/06/22 06:07:05;;;;;;;25.73;17.58;;;;;;;21.13;100.00;101968.72;5047197;28;20028;-63
2023/06/22 06:09:30;;;;;;;26.48;16.63;;;;;;;21.34;100.00;101960.28;5039471;28;20099;-63
2023/06/22 06:11:56;;;;;;;26.98;16.75;;;;;;;21.50;100.00;101965.59;5037178;28;20125;-63
2023/06/22 06:14:21;;;;;;;22.55;16.08;;;;;;;21.53;100.00;101961.84;5040785;28;20047;-63
2023/06/22 06:16:47;;;;;;;21.23;16.17;;;;;;;21.55;100.00;101960.78;5039385;28;20052;-63
2023/06/22 06:19:13;;;;;;;22.15;14.82;;;;;;;21.59;100.00;101956.09;5046987;28;20507;-63
2023/06/22 06:21:38;;;;;;;20.42;15.60;;;;;;;21.45;100.00;101951.59;5046055;28;20025;-64
2023/06/22 06:24:04;;;;;;;20.77;14.60;;;;;;;21.45;100.00;101957.81;5046280;28;20033;-64
2023/06/22 06:26:32;;;;;;;21.20;14.93;;;;;;;21.55;100.00;101962.63;5038312;28;20095;-64
2023/06/22 06:29:00;;;;;;;19.38;14.35;;;;;;;21.54;100.00;101961.75;5028268;28;20031;-64
2023/06/22 06:31:28;;;;;;;21.05;13.57;;;;;;;21.54;100.00;101956.38;5028589;28;20028;-64
2023/06/22 06:33:54;;;;;;;17.50;14.88;;;;;;;21.37;100.00;101953.91;5027797;28;20046;-63
2023/06/22 06:36:20;;;;;;;26.52;15.27;;;;;;;21.56;100.00;101951.78;5010068;28;20531;-64
2023/06/22 06:38:47;;;;;;;22.65;15.23;;;;;;;21.59;100.00;101956.09;5042727;28;20032;-64
2023/06/22 06:41:13;;;;;;;16.65;13.10;;;;;;;21.42;100.00;101947.28;5046490;28;20021;-63
2023/06/22 06:43:38;;;;;;;20.55;14.60;;;;;;;21.53;100.00;101952.00;5031241;28;20032;-64
2023/06/22 06:46:04;;;;;;;16.92;12.77;;;;;;;21.20;100.00;101953.13;5025749;28;20436;-63
2023/06/22 06:48:29;;;;;;;19.90;13.63;;;;;;;21.24;100.00;101943.94;5023730;28;20036;-65
2023/06/22 06:50:55;;;;;;;19.15;13.57;;;;;;;21.35;100.00;101943.28;5025748;28;20072;-63
2023/06/22 06:53:20;;;;;;;18.77;13.23;;;;;;;21.52;100.00;101944.88;5027715;28;20619;-64
2023/06/22 06:55:45;;;;;;;19.77;13.27;;;;;;;21.17;100.00;101948.81;5046758;28;20036;-63
2023/06/22 06:58:13;;;;;;;18.88;13.10;;;;;;;21.37;100.00;101938.66;5028100;28;20017;-62
2023/06/22 07:00:38;;;;;;;21.48;13.45;;;;;;;21.51;100.00;101942.28;5045466;28;20189;-65
2023/06/22 07:03:04;;;;;;;18.65;12.73;;;;;;;21.65;100.00;101936.06;5046722;28;20428;-64
2023/06/22 07:05:29;;;;;;;15.27;11.75;;;;;;;21.81;100.00;101933.28;5045757;28;20029;-64
2023/06/22 07:07:54;;;;;;;16.95;11.60;;;;;;;21.92;100.00;101929.91;5046805;28;20024;-63
2023/06/22 07:10:20;;;;;;;17.77;11.70;;;;;;;22.03;100.00;101935.44;5032117;28;20037;-64
2023/06/22 07:12:45;;;;;;;15.05;9.75;;;;;;;21.91;100.00;101936.25;5027462;28;20030;-66
2023/06/22 07:15:12;;;;;;;12.32;9.18;;;;;;;22.31;100.00;101941.63;5026476;28;20017;-64
2023/06/22 07:17:40;;;;;;;16.50;9.30;;;;;;;22.63;100.00;101929.72;5029802;28;20152;-63
2023/06/22 07:20:09;;;;;;;14.80;8.88;;;;;;;22.84;100.00;101923.84;5041036;28;20029;-64
2023/06/22 07:22:35;;;;;;;10.23;9.00;;;;;;;22.81;100.00;101924.03;5051556;28;20036;-64
2023/06/22 07:25:01;;;;;;;12.27;8.88;;;;;;;22.91;100.00;101919.75;5049824;28;20025;-65
2023/06/22 07:27:26;;;;;;;11.80;8.35;;;;;;;22.86;100.00;101924.59;5049159;28;20071;-64
2023/06/22 07:29:52;;;;;;;10.23;7.72;;;;;;;23.07;100.00;101919.56;5049895;28;20539;-63
2023/06/22 07:32:17;;;;;;;8.10;6.65;;;;;;;23.30;100.00;101924.28;5050775;28;20053;-63
2023/06/22 07:34:43;;;;;;;13.15;7.50;;;;;;;23.41;100.00;101916.31;5049406;28;20021;-63
2023/06/22 07:37:09;;;;;;;9.45;7.43;;;;;;;23.54;100.00;101920.81;5048661;28;20029;-61
2023/06/22 07:39:34;;;;;;;10.23;8.13;;;;;;;23.36;100.00;101915.78;5049167;28;20093;-63
2023/06/22 07:41:59;;;;;;;8.40;7.05;;;;;;;23.42;100.00;101918.03;5050041;28;20112;-63
2023/06/22 07:44:25;;;;;;;15.13;7.68;;;;;;;23.18;100.00;101907.19;5042394;28;20037;-64
2023/06/22 07:46:51;;;;;;;9.40;7.30;;;;;;;23.21;100.00;101910.50;5030097;28;20022;-65
2023/06/22 07:49:17;;;;;;;7.55;6.38;;;;;;;23.15;100.00;101902.88;5038997;28;20329;-64
2023/06/22 07:51:42;;;;;;;9.18;7.00;;;;;;;23.23;100.00;101899.63;5031944;28;20032;-64
2023/06/22 07:54:09;;;;;;;8.48;6.78;;;;;;;23.54;100.00;101900.13;5049168;28;20029;-63
2023/06/22 07:56:36;;;;;;;7.70;5.65;;;;;;;23.78;100.00;101895.78;5050070;28;20115;-64
2023/06/22 07:59:03;;;;;;;7.43;4.50;;;;;;;23.66;99.24;101898.38;5049958;28;20023;-62
2023/06/22 08:01:29;;;;;;;7.45;5.28;;;;;;;23.92;97.50;101901.00;5046225;28;20041;-62
2023/06/22 08:03:54;;;;;;;8.32;5.28;;;;;;;23.93;97.96;101900.00;5049959;28;20082;-63
2023/06/22 08:06:19;;;;;;;6.90;4.95;;;;;;;24.01;97.84;101894.06;5048684;28;20021;-63
2023/06/22 08:08:47;;;;;;;7.88;5.13;;;;;;;24.05;97.74;101883.94;5049880;28;20358;-63
2023/06/22 08:11:13;;;;;;;7.57;6.00;;;;;;;23.97;97.94;101885.38;5048784;28;20469;-62
2023/06/22 08:13:38;;;;;;;10.57;6.95;;;;;;;23.84;100.00;101879.19;5030357;28;20048;-63
2023/06/22 08:16:04;;;;;;;12.95;6.78;;;;;;;23.97;100.00;101885.38;5029348;28;20036;-62
2023/06/22 08:18:29;;;;;;;8.48;7.57;;;;;;;24.10;100.00;101879.91;5011707;28;20080;-62
2023/06/22 08:20:55;;;;;;;12.02;7.68;;;;;;;24.51;100.00;101876.03;5028916;28;20030;-65
2023/06/22 08:23:20;;;;;;;12.75;8.75;;;;;;;24.54;100.00;101873.97;5029824;28;20424;-66
2023/06/22 08:25:46;;;;;;;10.43;8.40;;;;;;;24.58;100.00;101888.03;5030205;28;20026;-62
2023/06/22 08:28:12;;;;;;;11.70;9.05;;;;;;;24.78;100.00;101873.00;5031887;28;20029;-63
2023/06/22 08:30:38;;;;;;;12.70;9.38;;;;;;;25.04;100.00;101871.97;5030159;28;20033;-63
2023/06/22 08:33:03;;;;;;;14.13;11.40;;;;;;;24.82;100.00;101871.78;5028528;28;20127;-63
2023/06/22 08:35:29;;;;;;;17.10;10.52;;;;;;;25.12;100.00;101872.19;5029059;28;20034;-63
2023/06/22 08:37:56;;;;;;;14.18;10.13;;;;;;;24.91;100.00;101877.44;5029360;28;20036;-64
2023/06/22 08:40:22;;;;;;;13.57;9.98;;;;;;;25.16;100.00;101868.25;5045447;28;20052;-64
2023/06/22 08:42:48;;;;;;;15.05;11.40;;;;;;;25.16;100.00;101860.16;5049434;28;20025;-64
2023/06/22 08:45:14;;;;;;;16.40;11.45;;;;;;;25.28;100.00;101857.47;5048952;28;20021;-63
2023/06/22 08:47:41;;;;;;;14.07;11.32;;;;;;;25.35;100.00;101867.63;5047946;28;20100;-64
2023/06/22 08:50:08;;;;;;;16.85;13.20;;;;;;;25.49;100.00;101863.81;5048228;28;20104;-63
2023/06/22 08:52:33;;;;;;;18.70;13.10;;;;;;;25.43;100.00;101858.91;5048558;28;20027;-63
2023/06/22 08:54:59;;;;;;;20.05;12.88;;;;;;;25.21;100.00;101860.66;5048763;28;20025;-68
2023/06/22 08:57:24;;;;;;;14.57;11.70;;;;;;;25.67;99.52;101859.75;5049192;28;20033;-63
2023/06/22 08:59:52;;;;;;;17.33;11.57;;;;;;;25.84;96.51;101858.34;5048005;28;20027;-64
2023/06/22 09:02:17;;;;;;;14.23;10.02;;;;;;;26.14;96.84;101859.44;5048892;28;20029;-63
2023/06/22 09:04:43;;;;;;;15.05;12.27;;;;;;;25.77;98.05;101860.72;5047702;28;20441;-62
2023/06/22 09:07:08;;;;;;;13.85;11.07;;;;;;;25.51;98.05;101858.28;5030404;28;20036;-65
2023/06/22 09:09:33;;;;;;;16.05;13.00;;;;;;;25.38;99.54;101853.06;5046485;28;20533;-63
2023/06/22 09:11:59;;;;;;;16.38;12.52;;;;;;;25.47;100.00;101854.97;5048225;28;20031;-63
2023/06/22 09:14:24;;;;;;;17.85;11.82;;;;;;;25.71;100.00;101856.66;5047891;28;20059;-63
2023/06/22 09:16:49;;;;;;;17.38;12.10;;;;;;;25.51;97.92;101855.59;5047206;28;20029;-65
2023/06/22 09:19:15;;;;;;;15.00;11.98;;;;;;;25.70;97.24;101849.56;5048007;28;20060;-63
2023/06/22 09:21:40;;;;;;;17.35;11.27;;;;;;;25.88;97.76;101843.59;5047036;28;20059;-63
2023/06/22 09:24:06;;;;;;;18.85;11.65;;;;;;;26.17;98.75;101842.13;5048314;28;20465;-62
2023/06/22 09:26:31;;;;;;;10.98;9.30;;;;;;;26.28;92.94;101842.06;5047166;28;20384;-63
2023/06/22 09:28:57;;;;;;;14.88;10.60;;;;;;;26.61;92.84;101844.72;5048000;28;20025;-64
2023/06/22 09:31:25;;;;;;;15.25;10.43;;;;;;;26.87;94.13;101837.00;5048665;28;20366;-65
2023/06/22 09:33:51;;;;;;;16.58;11.57;;;;;;;26.68;94.52;101848.59;5047737;28;20045;-66
2023/06/22 09:36:17;;;;;;;14.07;12.32;;;;;;;26.57;94.84;101851.34;5047591;28;20025;-64
2023/06/22 09:38:42;;;;;;;14.93;11.02;;;;;;;26.70;95.27;101846.59;5047529;28;20031;-64
2023/06/22 09:41:08;;;;;;;16.02;11.65;;;;;;;26.71;93.39;101845.63;5047316;28;20095;-65
2023/06/22 09:43:36;;;;;;;15.32;11.65;;;;;;;26.49;94.49;101835.84;5047944;28;20021;-63
2023/06/22 09:46:02;;;;;;;17.15;11.65;;;;;;;26.46;94.17;101830.69;5047404;28;20025;-63
2023/06/22 09:48:28;;;;;;;15.65;11.35;;;;;;;26.55;93.69;101829.88;5047751;28;20492;-64
2023/06/22 09:50:53;;;;;;;19.42;10.55;;;;;;;26.57;93.91;101837.84;5064870;28;20024;-63
2023/06/22 09:53:19;;;;;;;17.13;12.15;;;;;;;26.38;94.14;101823.25;5067688;28;20028;-62
2023/06/22 09:55:44;;;;;;;13.90;10.50;;;;;;;26.61;93.54;101820.41;5049678;28;20025;-63
2023/06/22 09:58:10;;;;;;;15.02;10.80;;;;;;;26.49;92.17;101823.16;5067066;28;20020;-64
2023/06/22 10:00:35;;;;;;;12.40;9.93;;;;;;;26.40;91.52;101832.09;5046981;28;20071;-64
2023/06/22 10:03:00;;;;;;;16.40;10.13;;;;;;;26.33;94.18;101820.06;5047097;28;20021;-64
2023/06/22 10:05:26;;;;;;;15.88;10.20;;;;;;;26.39;94.09;101814.16;5045986;28;20063;-63
2023/06/22 10:07:51;;;;;;;14.77;9.80;;;;;;;26.81;91.89;101820.47;5045736;28;20100;-64
2023/06/22 10:10:16;;;;;;;16.45;10.18;;;;;;;26.78;94.13;101827.00;5047628;28;20021;-64
2023/06/22 10:12:45;;;;;;;15.27;10.18;;;;;;;26.77;93.11;101829.84;5045090;28;20070;-64
2023/06/22 10:15:11;;;;;;;12.75;10.30;;;;;;;26.74;92.99;101820.16;5046479;28;20489;-64
2023/06/22 10:17:36;;;;;;;14.18;10.45;;;;;;;26.57;93.04;101822.50;5046014;28;20035;-64
2023/06/22 10:20:10;;;;;;;12.40;9.63;;;;;;;26.90;91.37;101825.06;5056805;28;20024;-64
2023/06/22 10:22:36;;;;;;;14.60;9.75;;;;;;;26.64;90.81;101822.84;5066877;28;20039;-65
2023/06/22 10:25:01;;;;;;;12.75;9.80;;;;;;;26.97;89.78;101828.09;5066105;28;20020;-63
2023/06/22 10:27:26;;;;;;;19.00;10.63;;;;;;;26.96;88.65;101826.34;5067206;28;20024;-64
2023/06/22 10:29:52;;;;;;;16.85;11.23;;;;;;;26.64;90.79;101825.53;5067007;28;20016;-64
2023/06/22 10:32:17;;;;;;;14.20;11.20;;;;;;;26.60;91.85;101824.94;5066971;28;20032;-64
2023/06/22 10:34:42;;;;;;;13.77;10.65;;;;;;;26.80;91.36;101824.16;5066952;28;20020;-65
2023/06/22 10:37:08;;;;;;;13.40;11.32;;;;;;;26.62;92.78;101819.41;5067748;28;20376;-66
2023/06/22 10:39:33;;;;;;;15.00;10.18;;;;;;;26.28;90.19;101827.69;5053858;28;20033;-65
2023/06/22 10:41:58;;;;;;;12.02;8.05;;;;;;;26.29;87.71;101840.22;5033461;28;20449;-65
2023/06/22 10:44:24;;;;;;;12.07;8.45;;;;;;;26.43;87.51;101829.09;5032320;28;20052;-66
2023/06/22 10:46:49;;;;;;;12.18;8.32;;;;;;;26.68;87.65;101829.69;5013603;28;20022;-67
2023/06/22 10:49:15;;;;;;;14.95;8.43;;;;;;;26.87;87.87;101828.03;5036729;28;20379;-65
2023/06/22 10:51:41;;;;;;;12.80;9.73;;;;;;;26.81;87.77;101828.56;5026842;28;20662;-66
2023/06/22 10:54:06;;;;;;;13.35;9.27;;;;;;;26.68;88.27;101834.22;5035686;28;20021;-65
2023/06/22 10:56:33;;;;;;;11.23;9.32;;;;;;;26.55;89.73;101832.56;5037002;28;20051;-65
2023/06/22 10:58:59;;;;;;;12.15;8.52;;;;;;;26.44;89.79;101833.53;5036301;28;20755;-65
2023/06/22 11:01:24;;;;;;;12.13;7.93;;;;;;;26.72;89.88;101825.69;5037850;28;20108;-64
2023/06/22 11:03:49;;;;;;;11.07;8.55;;;;;;;26.82;88.94;101833.00;5035624;28;20028;-65